Windsor, North Dakota
Current Conditions -  °F | °C
As of 7:56 AM on Thursday 27 Nov 2014 (Local Time) from KJMS Reporting Station
Clear Clear  
Wind Chill: -36°   Ceiling: Unl
Heat Index: -21°   Visibility: 10mi
Dew Point: -28°   Wind: 6mph
Humidity: 70%   Direction: 170°S
Pressure: 30.4"   Gusts: NA
Location:  46.8919°N, 99.0696°W
Report Text: KJMS 271356Z AUTO 17005KT 10SM CLR M29/M33 A3040 RMK AO2 SLP357 T12941333
Loading
Personal Weather Stations






























Interactive Weather Map New forecast layout! Learn more

10-Day Weather Forecast

Advertisements
Track Severe Weather on mobile